Time;durP1;ratioP1;P1;durP2;ratioP2;P2;SDS_P1;SDS_P2;PMS_P1;PMS_P2;Temp;Humidity;BMP_temperature;BMP_pressure;BME280_temperature;BME280_humidity;BME280_pressure;Samples;Min_cycle;Max_cycle;Signal;HPM_P1;HPM_P2
2023/07/21 00:00:18;;;;;;;2.72;2.00;;;;;;;17.14;85.54;101141.53;4998476;28;20100;-81
2023/07/21 00:02:44;;;;;;;3.20;2.72;;;;;;;17.06;85.36;101140.78;5001023;28;20658;-81
2023/07/21 00:05:11;;;;;;;2.60;2.15;;;;;;;17.11;84.80;101146.00;4997286;28;20046;-81
2023/07/21 00:07:36;;;;;;;4.03;2.88;;;;;;;16.98;86.65;101142.06;4998702;28;20030;-81
2023/07/21 00:10:12;;;;;;;2.80;2.42;;;;;;;16.99;85.71;101144.50;5017210;28;20030;-81
2023/07/21 00:12:47;;;;;;;3.28;2.78;;;;;;;17.04;85.78;101141.19;4990667;28;20038;-81
2023/07/21 00:15:18;;;;;;;4.65;2.90;;;;;;;17.06;85.48;101150.06;4981043;28;22450;-81
2023/07/21 00:17:47;;;;;;;4.97;3.00;;;;;;;17.01;85.95;101135.56;4996714;28;20034;-81
2023/07/21 00:20:19;;;;;;;4.05;2.50;;;;;;;16.92;86.49;101127.56;5002893;28;20033;-81
2023/07/21 00:22:44;;;;;;;3.25;2.55;;;;;;;16.81;87.04;101133.31;5011789;28;20112;-81
2023/07/21 00:25:10;;;;;;;4.63;2.80;;;;;;;16.85;86.84;101127.63;5001373;28;20486;-81
2023/07/21 00:27:40;;;;;;;3.28;2.70;;;;;;;16.71;88.08;101125.66;4998349;28;20034;-81
2023/07/21 00:30:09;;;;;;;4.00;2.47;;;;;;;16.80;87.40;101130.84;4996702;28;20037;-82
2023/07/21 00:32:39;;;;;;;6.57;2.85;;;;;;;16.79;87.94;101129.25;5004532;28;20136;-81
2023/07/21 00:35:06;;;;;;;3.97;2.70;;;;;;;16.75;87.55;101123.63;4999821;28;20109;-81
2023/07/21 00:37:32;;;;;;;3.33;2.33;;;;;;;16.79;87.98;101129.25;5006245;28;20091;-81
2023/07/21 00:39:58;;;;;;;5.30;2.97;;;;;;;16.78;88.29;101119.97;5002298;28;20548;-81
2023/07/21 00:42:23;;;;;;;4.90;2.88;;;;;;;16.73;88.53;101125.25;5003156;28;20069;-81
2023/07/21 00:44:51;;;;;;;4.70;2.80;;;;;;;16.71;88.44;101117.19;5006238;28;20041;-81
2023/07/21 00:47:16;;;;;;;6.28;3.30;;;;;;;16.65;88.75;101116.00;5006929;28;20026;-81
2023/07/21 00:49:43;;;;;;;4.55;2.78;;;;;;;16.60;88.97;101110.81;4998890;28;20436;-81
2023/07/21 00:52:12;;;;;;;4.75;3.28;;;;;;;16.69;88.13;101116.78;4997074;28;20553;-81
2023/07/21 00:54:38;;;;;;;4.40;2.38;;;;;;;16.59;88.87;101109.19;4989798;28;20029;-81
2023/07/21 00:57:03;;;;;;;5.10;2.80;;;;;;;16.69;88.28;101119.63;4996399;28;20036;-81
2023/07/21 00:59:29;;;;;;;4.35;2.55;;;;;;;16.75;87.62;101112.31;4994945;28;20038;-82
2023/07/21 01:01:56;;;;;;;5.10;3.25;;;;;;;16.70;88.73;101109.09;5022887;28;20034;-81
2023/07/21 01:04:23;;;;;;;4.13;3.03;;;;;;;16.62;89.71;101117.66;5005349;28;20391;-82
2023/07/21 01:06:49;;;;;;;5.55;3.15;;;;;;;16.63;89.80;101109.97;5002004;28;20362;-81
2023/07/21 01:09:16;;;;;;;5.25;2.80;;;;;;;16.59;90.00;101115.66;5003640;28;20033;-81
2023/07/21 01:11:42;;;;;;;4.03;2.97;;;;;;;16.61;90.31;101106.75;5006967;28;20124;-81
2023/07/21 01:14:08;;;;;;;4.95;3.13;;;;;;;16.65;89.69;101101.88;5001101;28;20160;-81
2023/07/21 01:16:37;;;;;;;4.60;2.78;;;;;;;16.58;90.57;101110.41;4996430;28;20032;-81
2023/07/21 01:19:07;;;;;;;4.25;2.90;;;;;;;16.58;90.45;101097.09;5016596;28;20038;-81
2023/07/21 01:21:40;;;;;;;2.97;2.47;;;;;;;16.55;90.58;101097.09;5002893;28;20040;-81
2023/07/21 01:24:16;;;;;;;4.45;2.45;;;;;;;16.53;90.35;101091.88;4998561;28;20034;-81
2023/07/21 01:26:43;;;;;;;3.17;2.30;;;;;;;16.38;91.79;101096.81;4997138;28;20613;-81
2023/07/21 01:29:09;;;;;;;3.80;2.78;;;;;;;16.44;91.24;101089.53;5002278;28;20139;-81
2023/07/21 01:31:37;;;;;;;6.05;2.75;;;;;;;16.49;90.43;101087.47;4997713;28;20194;-81
2023/07/21 01:34:06;;;;;;;2.72;2.00;;;;;;;16.60;89.66;101076.91;5013423;28;20030;-84
2023/07/21 01:36:32;;;;;;;5.70;2.70;;;;;;;16.57;89.45;101080.53;4995636;28;20034;-81
2023/07/21 01:38:58;;;;;;;4.00;2.60;;;;;;;16.55;90.07;101074.50;4998087;28;20029;-83
2023/07/21 01:41:25;;;;;;;3.10;2.80;;;;;;;16.46;91.23;101078.63;5001867;28;20031;-83
2023/07/21 01:43:53;;;;;;;6.53;2.45;;;;;;;16.41;91.45;101070.56;5003937;28;20560;-83
2023/07/21 01:46:18;;;;;;;5.45;2.67;;;;;;;16.44;90.52;101066.94;4996744;28;20030;-83
2023/07/21 01:48:46;;;;;;;3.47;2.55;;;;;;;16.46;91.48;101064.50;5001591;28;20044;-83
2023/07/21 01:51:14;;;;;;;4.13;2.78;;;;;;;16.47;90.30;101062.47;4997780;28;20486;-83
2023/07/21 01:53:41;;;;;;;3.38;2.42;;;;;;;16.46;90.61;101058.84;4991999;28;20031;-82
2023/07/21 01:56:12;;;;;;;4.65;2.53;;;;;;;16.50;90.25;101055.16;4992109;28;20042;-82
2023/07/21 01:58:37;;;;;;;3.28;2.53;;;;;;;16.42;91.61;101055.22;4996371;28;20486;-82
2023/07/21 02:01:05;;;;;;;4.90;2.60;;;;;;;16.40;91.51;101057.66;4990320;28;20034;-82
2023/07/21 02:03:31;;;;;;;5.18;2.70;;;;;;;16.47;90.44;101051.16;5004718;28;20116;-82
2023/07/21 02:05:56;;;;;;;3.40;2.30;;;;;;;16.52;90.36;101052.75;4996817;28;20149;-82
2023/07/21 02:08:21;;;;;;;3.17;2.40;;;;;;;16.39;91.67;101056.03;4999943;28;20035;-82
2023/07/21 02:10:47;;;;;;;3.55;2.50;;;;;;;16.42;90.58;101055.22;4993274;28;20041;-82
2023/07/21 02:13:15;;;;;;;4.07;2.10;;;;;;;16.38;92.21;101047.97;4995607;28;20026;-82
2023/07/21 02:15:40;;;;;;;2.63;2.38;;;;;;;16.33;92.28;101043.56;4995986;28;20026;-82
2023/07/21 02:18:06;;;;;;;3.65;2.10;;;;;;;16.36;91.31;101045.59;4996707;28;20037;-82
2023/07/21 02:20:31;;;;;;;4.82;2.60;;;;;;;16.29;92.84;101051.25;4993589;28;20030;-82
2023/07/21 02:22:57;;;;;;;2.88;2.30;;;;;;;16.35;91.63;101052.44;5003575;28;20091;-82
2023/07/21 02:25:23;;;;;;;3.75;2.63;;;;;;;16.36;92.12;101048.41;4998594;28;20087;-82
2023/07/21 02:27:48;;;;;;;4.15;2.67;;;;;;;16.27;92.75;101042.41;5000236;28;20064;-82
2023/07/21 02:30:13;;;;;;;2.88;2.20;;;;;;;16.36;91.58;101039.94;4997440;28;20030;-82
2023/07/21 02:32:39;;;;;;;3.65;2.30;;;;;;;16.50;90.70;101038.22;5003269;28;20045;-82
2023/07/21 02:35:05;;;;;;;5.18;2.75;;;;;;;16.29;92.06;101034.31;5001938;28;20105;-82
2023/07/21 02:37:31;;;;;;;4.15;2.63;;;;;;;16.36;91.56;101028.63;4999593;28;20026;-82
2023/07/21 02:39:56;;;;;;;4.18;2.40;;;;;;;16.39;91.29;101033.44;5010896;28;20025;-82
2023/07/21 02:42:21;;;;;;;8.52;3.58;;;;;;;16.32;91.97;101025.03;5009748;28;20057;-82
2023/07/21 02:44:47;;;;;;;3.13;2.50;;;;;;;16.33;92.18;101026.63;4997201;28;20045;-82
2023/07/21 02:47:16;;;;;;;3.75;3.17;;;;;;;16.31;93.02;101031.88;5004726;28;20033;-82
2023/07/21 02:49:44;;;;;;;4.03;2.47;;;;;;;16.31;93.02;101036.75;5006367;28;20033;-82
2023/07/21 02:52:10;;;;;;;3.88;2.40;;;;;;;16.25;93.79;101030.72;5004599;28;20034;-82
2023/07/21 02:54:36;;;;;;;3.83;2.90;;;;;;;16.29;93.90;101031.50;5001011;28;20030;-82
2023/07/21 02:57:02;;;;;;;6.28;2.53;;;;;;;16.34;93.70;101028.25;4999585;28;20047;-82
2023/07/21 02:59:28;;;;;;;3.42;2.20;;;;;;;16.31;93.65;101031.09;4998350;28;20030;-82
2023/07/21 03:01:57;;;;;;;3.45;2.78;;;;;;;16.19;95.29;101032.38;4999961;28;20053;-82
2023/07/21 03:04:24;;;;;;;6.30;3.92;;;;;;;16.19;95.10;101032.38;4994562;28;20109;-81
2023/07/21 03:06:50;;;;;;;4.70;2.83;;;;;;;16.19;95.73;101026.72;4993984;28;20060;-82
2023/07/21 03:09:15;;;;;;;4.50;2.35;;;;;;;16.23;95.75;101038.78;5000878;28;21385;-82
2023/07/21 03:11:40;;;;;;;4.10;2.70;;;;;;;16.18;95.71;101033.59;4998758;28;20029;-82
2023/07/21 03:14:06;;;;;;;3.22;2.70;;;;;;;16.21;95.08;101033.59;5003978;28;20026;-82
2023/07/21 03:16:32;;;;;;;3.42;2.42;;;;;;;16.22;94.85;101031.56;4998791;28;20022;-82
2023/07/21 03:18:57;;;;;;;5.32;3.10;;;;;;;16.22;94.83;101040.03;5001594;28;20026;-82
2023/07/21 03:21:23;;;;;;;4.50;2.90;;;;;;;16.23;94.35;101028.31;4993587;28;20033;-82
2023/07/21 03:23:48;;;;;;;4.63;3.17;;;;;;;16.24;94.41;101015.00;5008933;28;20496;-81
2023/07/21 03:26:13;;;;;;;3.38;2.55;;;;;;;16.28;95.99;101027.06;5006372;28;20038;-82
2023/07/21 03:28:39;;;;;;;4.30;2.72;;;;;;;16.25;96.16;101016.59;4997732;28;20036;-82
2023/07/21 03:31:04;;;;;;;3.47;2.17;;;;;;;16.33;94.92;101014.53;4996709;28;20030;-82
2023/07/21 03:33:29;;;;;;;6.72;3.20;;;;;;;16.25;97.03;101028.72;4998230;28;20026;-82
2023/07/21 03:36:00;;;;;;;4.40;3.15;;;;;;;16.16;97.42;101022.69;4998072;28;20784;-82
2023/07/21 03:38:25;;;;;;;6.53;3.10;;;;;;;16.19;97.52;101029.53;4995417;28;20446;-82
2023/07/21 03:41:05;;;;;;;6.50;3.83;;;;;;;16.15;96.96;101023.94;4996736;28;20037;-82
2023/07/21 03:43:31;;;;;;;4.05;3.08;;;;;;;16.18;97.17;101023.09;4995639;28;20048;-82
2023/07/21 03:46:02;;;;;;;5.07;2.92;;;;;;;16.18;98.03;101019.47;4995799;28;20491;-82
2023/07/21 03:48:29;;;;;;;7.82;3.60;;;;;;;16.09;98.10;101024.78;4995990;28;20037;-82
2023/07/21 03:51:03;;;;;;;5.18;2.97;;;;;;;16.03;99.31;101025.19;4993411;28;20048;-82
2023/07/21 03:53:29;;;;;;;5.63;3.28;;;;;;;16.10;98.07;101015.09;4993648;28;20026;-82
2023/07/21 03:55:55;;;;;;;6.32;2.80;;;;;;;16.05;98.86;101027.63;5007276;28;20389;-82
2023/07/21 03:58:21;;;;;;;4.88;2.95;;;;;;;16.02;98.71;101009.50;4999502;28;20032;-82
2023/07/21 04:00:46;;;;;;;7.10;2.97;;;;;;;16.00;99.28;101017.56;4994653;28;20088;-82
2023/07/21 04:03:13;;;;;;;8.20;4.00;;;;;;;16.04;99.13;101024.00;4999655;28;20563;-82
2023/07/21 04:05:39;;;;;;;4.05;2.35;;;;;;;16.11;98.05;101019.53;4996853;28;20042;-82
2023/07/21 04:08:05;;;;;;;8.07;3.60;;;;;;;16.05;99.39;101019.94;4992455;28;20437;-82
2023/07/21 04:10:31;;;;;;;3.33;3.03;;;;;;;16.13;99.38;101017.91;4994129;28;20041;-82
2023/07/21 04:12:57;;;;;;;4.95;3.25;;;;;;;16.01;100.00;101013.53;4996173;28;20181;-82
2023/07/21 04:15:26;;;;;;;6.65;3.10;;;;;;;16.00;99.69;101013.91;4976866;28;20065;-82
2023/07/21 04:17:52;;;;;;;4.07;2.97;;;;;;;16.12;98.21;101012.66;4998565;28;20034;-82
2023/07/21 04:20:18;;;;;;;6.03;3.40;;;;;;;16.04;98.49;101007.06;5002460;28;20041;-82
2023/07/21 04:22:43;;;;;;;4.60;2.83;;;;;;;16.12;97.32;101007.00;4998332;28;20030;-82
2023/07/21 04:25:11;;;;;;;7.20;3.05;;;;;;;16.10;97.48;101009.44;5001983;28;20026;-82
2023/07/21 04:27:36;;;;;;;9.18;4.03;;;;;;;16.07;98.59;100996.16;4999597;28;20105;-82
2023/07/21 04:30:02;;;;;;;6.28;3.83;;;;;;;16.01;97.67;100990.94;5002677;28;20120;-82
2023/07/21 04:32:27;;;;;;;5.97;4.32;;;;;;;16.03;98.14;100993.34;5000205;28;20076;-82
2023/07/21 04:34:53;;;;;;;7.00;3.35;;;;;;;16.07;97.41;101002.59;5002533;28;20060;-82
2023/07/21 04:37:18;;;;;;;4.80;3.80;;;;;;;16.14;96.64;101004.56;5003580;28;20113;-82
2023/07/21 04:39:43;;;;;;;6.18;4.07;;;;;;;16.13;97.49;101011.41;5007628;28;20053;-82
2023/07/21 04:42:09;;;;;;;5.45;3.97;;;;;;;16.12;98.19;101015.47;5001851;28;20021;-82
2023/07/21 04:44:35;;;;;;;5.22;3.83;;;;;;;16.14;97.72;101013.03;5005607;28;20029;-82
2023/07/21 04:47:04;;;;;;;7.78;4.28;;;;;;;16.14;97.13;101015.88;4997429;28;20108;-82
2023/07/21 04:49:30;;;;;;;5.47;4.03;;;;;;;16.13;96.98;101008.59;4997213;28;20025;-82
2023/07/21 04:51:58;;;;;;;7.07;4.20;;;;;;;16.11;98.00;101011.06;5009345;28;20051;-82
2023/07/21 04:54:24;;;;;;;5.35;3.83;;;;;;;16.10;97.71;101003.78;5008022;28;20029;-82
2023/07/21 04:56:50;;;;;;;6.95;4.75;;;;;;;16.12;97.33;100996.50;5007352;28;20025;-82
2023/07/21 04:59:16;;;;;;;7.30;3.63;;;;;;;16.11;99.44;100999.75;4998152;28;20548;-82
2023/07/21 05:01:42;;;;;;;7.13;4.80;;;;;;;16.12;98.45;101007.81;4999422;28;20065;-82
2023/07/21 05:04:07;;;;;;;4.95;3.70;;;;;;;16.21;96.38;101004.50;5000042;28;20489;-82
2023/07/21 05:06:33;;;;;;;6.35;4.57;;;;;;;16.21;96.40;101005.34;4995881;28;20112;-82
2023/07/21 05:08:58;;;;;;;6.13;4.53;;;;;;;16.24;96.47;101000.88;4994987;28;20036;-82
2023/07/21 05:11:23;;;;;;;9.20;4.97;;;;;;;16.10;98.25;100992.50;4994055;28;20040;-82
2023/07/21 05:13:51;;;;;;;9.07;4.90;;;;;;;16.18;97.20;100999.72;4995176;28;20103;-82
2023/07/21 05:16:16;;;;;;;5.40;4.40;;;;;;;16.19;97.01;100995.66;4992592;28;20388;-82
2023/07/21 05:18:42;;;;;;;7.22;4.88;;;;;;;16.21;97.64;100988.41;4999372;28;20044;-82
2023/07/21 05:21:07;;;;;;;5.95;4.93;;;;;;;16.29;97.08;100997.59;4990481;28;20908;-82
2023/07/21 05:23:33;;;;;;;6.95;4.72;;;;;;;16.14;97.57;100991.25;4994131;28;20082;-82
2023/07/21 05:26:02;;;;;;;7.13;5.32;;;;;;;16.24;96.47;100998.06;4995279;28;20045;-82
2023/07/21 05:28:28;;;;;;;6.07;4.55;;;;;;;16.18;97.09;100994.84;4997742;28;20100;-82
2023/07/21 05:30:54;;;;;;;7.55;5.20;;;;;;;16.20;97.60;101002.91;4996827;28;20038;-81
2023/07/21 05:33:20;;;;;;;7.50;4.45;;;;;;;16.25;96.75;100999.66;4998071;28;20034;-82
2023/07/21 05:35:45;;;;;;;7.72;4.70;;;;;;;16.19;98.62;101006.94;4995135;28;20135;-82
2023/07/21 05:38:11;;;;;;;7.43;4.80;;;;;;;16.26;98.13;101004.09;4995382;28;20045;-82
2023/07/21 05:40:36;;;;;;;8.93;4.65;;;;;;;16.28;97.18;101004.47;4994508;28;20042;-82
2023/07/21 05:43:05;;;;;;;5.90;4.83;;;;;;;16.26;97.69;101002.06;4994503;28;20049;-81
2023/07/21 05:45:30;;;;;;;7.40;4.47;;;;;;;16.28;98.39;100998.03;5001451;28;20052;-82
2023/07/21 05:47:55;;;;;;;6.10;4.60;;;;;;;16.29;97.09;101006.06;4998943;28;20132;-82
2023/07/21 05:50:21;;;;;;;6.30;5.00;;;;;;;16.29;97.06;100991.16;5000226;28;20022;-82
2023/07/21 05:52:53;;;;;;;6.97;4.72;;;;;;;16.29;97.58;100996.81;5002403;28;20026;-82
2023/07/21 05:55:19;;;;;;;7.03;4.90;;;;;;;16.33;97.38;101001.19;5001411;28;20021;-82
2023/07/21 05:57:45;;;;;;;6.57;4.50;;;;;;;16.32;98.40;101001.59;4997295;28;20528;-82
2023/07/21 06:00:15;;;;;;;6.60;3.92;;;;;;;16.21;99.90;100993.22;4995970;28;20034;-82
2023/07/21 06:02:41;;;;;;;6.93;4.65;;;;;;;16.15;100.00;101007.00;5010576;28;20029;-82
2023/07/21 06:05:08;;;;;;;8.40;5.20;;;;;;;16.25;98.16;101003.28;4997943;28;20041;-82
2023/07/21 06:07:33;;;;;;;6.70;4.75;;;;;;;16.36;96.52;101000.38;5006034;28;20026;-82
2023/07/21 06:09:59;;;;;;;7.15;4.32;;;;;;;16.38;98.33;101000.78;4996679;28;20040;-82
2023/07/21 06:12:24;;;;;;;6.20;3.55;;;;;;;16.51;95.79;101011.56;4996674;28;20030;-82
2023/07/21 06:14:50;;;;;;;4.90;4.25;;;;;;;16.49;94.32;101003.53;5000933;28;20057;-82
2023/07/21 06:17:15;;;;;;;6.15;4.30;;;;;;;16.44;98.15;101001.94;5008635;28;20038;-82
2023/07/21 06:19:41;;;;;;;7.20;4.60;;;;;;;16.26;100.00;101001.28;5003002;28;20037;-82
2023/07/21 06:22:07;;;;;;;6.22;4.35;;;;;;;16.25;99.58;101003.28;4998070;28;20513;-82
2023/07/21 06:24:32;;;;;;;8.43;4.63;;;;;;;16.34;100.00;101002.00;5002393;28;20578;-82
2023/07/21 06:26:58;;;;;;;10.85;5.35;;;;;;;16.42;100.00;100993.09;4996593;28;20033;-82
2023/07/21 06:29:24;;;;;;;10.13;5.63;;;;;;;16.42;100.00;100986.59;4995340;28;20393;-82
2023/07/21 06:31:51;;;;;;;5.93;4.53;;;;;;;16.48;97.26;100993.41;4993437;28;20025;-82
2023/07/21 06:34:17;;;;;;;6.80;4.88;;;;;;;16.46;100.00;100979.72;4990500;28;20061;-82
2023/07/21 06:36:43;;;;;;;4.45;3.40;;;;;;;17.00;98.76;100978.44;4991735;28;20448;-77
2023/07/21 06:39:09;;;;;;;5.38;4.30;;;;;;;17.19;93.29;100977.81;5009637;28;20061;-76
2023/07/21 06:41:35;;;;;;;4.88;3.13;;;;;;;17.24;93.48;100974.56;4996979;28;20037;-77
2023/07/21 06:44:01;;;;;;;7.28;3.28;;;;;;;17.03;92.06;100974.78;5003733;28;20030;-74
2023/07/21 06:46:26;;;;;;;7.53;3.42;;;;;;;17.03;93.45;100969.13;5005221;28;20034;-74
2023/07/21 06:48:53;;;;;;;4.35;3.05;;;;;;;17.33;93.73;100976.88;5007637;28;20025;-74
2023/07/21 06:51:19;;;;;;;7.35;2.92;;;;;;;17.79;92.19;100991.63;5003872;28;20120;-74
2023/07/21 06:53:45;;;;;;;8.40;3.70;;;;;;;17.46;89.26;100985.59;5013917;28;20141;-74
2023/07/21 06:56:13;;;;;;;5.25;3.08;;;;;;;17.23;90.60;100984.25;5000021;28;20039;-74
2023/07/21 06:58:38;;;;;;;4.47;2.22;;;;;;;17.32;91.10;100989.41;5006467;28;20030;-74
2023/07/21 07:01:04;;;;;;;7.35;3.60;;;;;;;17.30;92.37;100980.53;5004727;28;20355;-74
2023/07/21 07:03:29;;;;;;;5.95;2.90;;;;;;;17.24;91.95;100983.03;5000058;28;20475;-73
2023/07/21 07:05:55;;;;;;;5.53;3.53;;;;;;;17.41;91.06;100994.53;5002229;28;20054;-74
2023/07/21 07:08:21;;;;;;;4.00;3.08;;;;;;;17.33;92.15;100976.03;5011301;28;20025;-74
2023/07/21 07:10:47;;;;;;;5.18;2.92;;;;;;;17.42;92.37;100984.84;5000460;28;20038;-74
2023/07/21 07:13:13;;;;;;;4.78;2.75;;;;;;;17.48;90.54;100981.13;4999916;28;20030;-73
2023/07/21 07:15:39;;;;;;;10.43;3.85;;;;;;;17.48;89.75;100977.50;5006577;28;20504;-73
2023/07/21 07:18:04;;;;;;;4.78;2.88;;;;;;;17.57;88.64;100980.59;5002020;28;20510;-74
2023/07/21 07:20:30;;;;;;;3.63;2.50;;;;;;;17.65;88.85;100972.84;5003776;28;20037;-73
2023/07/21 07:22:56;;;;;;;4.53;2.45;;;;;;;18.11;89.66;100973.41;5007133;28;20060;-73
2023/07/21 07:25:24;;;;;;;4.70;2.15;;;;;;;19.41;82.94;100979.22;5004043;28;20394;-74
2023/07/21 07:27:51;;;;;;;2.63;2.33;;;;;;;19.89;79.60;100974.97;5001465;28;20108;-73
2023/07/21 07:30:16;;;;;;;3.17;2.22;;;;;;;20.16;78.40;100978.84;5006244;28;20072;-74
2023/07/21 07:32:43;;;;;;;4.05;1.90;;;;;;;20.18;77.39;100979.22;5000106;28;20460;-74
2023/07/21 07:35:10;;;;;;;5.60;2.25;;;;;;;19.80;78.93;100986.16;5005814;28;20109;-73
2023/07/21 07:37:35;;;;;;;3.78;2.22;;;;;;;19.72;78.28;100983.91;5005792;28;20029;-74
2023/07/21 07:40:01;;;;;;;2.78;1.85;;;;;;;20.13;77.85;100989.03;5004922;28;20492;-74
2023/07/21 07:42:26;;;;;;;2.25;1.90;;;;;;;20.36;76.43;100979.56;5002967;28;20049;-74
2023/07/21 07:44:58;;;;;;;5.30;2.13;;;;;;;20.44;76.06;100980.19;5001068;28;20034;-74
2023/07/21 07:47:29;;;;;;;4.13;1.83;;;;;;;20.58;74.91;100979.09;5006427;28;21651;-74
2023/07/21 07:49:54;;;;;;;3.28;2.33;;;;;;;20.64;73.94;100968.75;5004463;28;20485;-74
2023/07/21 07:52:19;;;;;;;2.65;1.70;;;;;;;19.98;74.76;100965.06;5002129;28;20022;-73
2023/07/21 07:54:45;;;;;;;3.20;1.83;;;;;;;20.17;72.81;100969.88;5001151;28;20502;-74
2023/07/21 07:57:10;;;;;;;2.30;1.50;;;;;;;20.50;72.42;100962.16;5002835;28;20525;-74
2023/07/21 07:59:36;;;;;;;3.38;1.77;;;;;;;20.45;72.63;100974.06;4995576;28;20029;-74
2023/07/21 08:02:01;;;;;;;3.65;1.65;;;;;;;20.55;71.62;100969.34;5001182;28;20032;-74
2023/07/21 08:04:27;;;;;;;1.80;1.27;;;;;;;20.35;67.95;100972.28;5000969;28;20040;-74
2023/07/21 08:06:52;;;;;;;4.00;1.80;;;;;;;20.61;70.64;100972.50;4997982;28;20112;-73
2023/07/21 08:09:18;;;;;;;2.65;1.60;;;;;;;20.63;70.40;100970.78;5004042;28;20038;-74
2023/07/21 08:11:43;;;;;;;1.10;0.90;;;;;;;20.85;69.97;100973.06;4998246;28;20034;-73
2023/07/21 08:14:08;;;;;;;2.47;1.23;;;;;;;20.81;70.60;100976.03;4997313;28;20021;-74
2023/07/21 08:16:36;;;;;;;1.85;1.27;;;;;;;20.83;69.83;100973.53;5000232;28;20049;-75
2023/07/21 08:19:02;;;;;;;2.05;1.42;;;;;;;20.61;70.28;100967.59;5000601;28;20493;-74
2023/07/21 08:21:28;;;;;;;3.40;2.03;;;;;;;20.71;70.64;100977.09;4993693;28;20680;-74
2023/07/21 08:23:54;;;;;;;1.90;1.80;;;;;;;20.75;68.79;100974.97;5009434;28;20037;-74
2023/07/21 08:26:20;;;;;;;3.92;3.08;;;;;;;20.42;68.55;100977.00;5006450;28;20034;-74
2023/07/21 08:28:46;;;;;;;2.08;1.58;;;;;;;20.92;69.63;100970.84;4997927;28;20029;-74
2023/07/21 08:31:11;;;;;;;3.80;1.90;;;;;;;20.76;69.39;100972.91;4995034;28;20045;-74
2023/07/21 08:33:37;;;;;;;3.15;1.70;;;;;;;20.78;68.79;100974.06;4992292;28;20080;-74
2023/07/21 08:36:03;;;;;;;3.13;1.25;;;;;;;20.72;68.02;100981.53;4993552;28;20030;-74
2023/07/21 08:38:29;;;;;;;1.00;0.80;;;;;;;20.93;66.93;100980.16;4992472;28;20029;-73
2023/07/21 08:41:06;;;;;;;1.45;1.35;;;;;;;20.47;69.62;100971.59;5006912;28;20033;-74
2023/07/21 08:43:32;;;;;;;2.75;2.25;;;;;;;20.13;70.77;100976.88;4994055;28;20103;-73
2023/07/21 08:46:05;;;;;;;4.47;1.50;;;;;;;20.27;71.10;100976.56;4987595;28;20521;-74
2023/07/21 08:48:31;;;;;;;2.08;1.35;;;;;;;20.59;69.49;100972.13;5000460;28;20038;-74
2023/07/21 08:50:57;;;;;;;1.63;1.35;;;;;;;20.66;68.72;100972.75;4997197;28;20060;-74
2023/07/21 08:53:26;;;;;;;2.63;1.20;;;;;;;20.01;72.26;100964.97;5012163;28;20044;-74
2023/07/21 08:55:56;;;;;;;1.60;1.15;;;;;;;20.48;72.25;100964.66;5008341;28;20077;-74
2023/07/21 08:58:22;;;;;;;1.55;1.30;;;;;;;20.76;67.88;100964.38;5002941;28;20038;-73
2023/07/21 09:00:49;;;;;;;1.55;0.95;;;;;;;20.86;70.72;100972.63;4996799;28;20528;-74
2023/07/21 09:03:25;;;;;;;3.58;1.40;;;;;;;21.16;71.33;100972.66;4997112;28;20048;-74
2023/07/21 09:05:51;;;;;;;4.50;1.63;;;;;;;21.40;69.73;100976.84;4997826;28;20081;-73
2023/07/21 09:08:25;;;;;;;1.67;1.23;;;;;;;20.88;69.18;100975.81;4993454;28;20159;-74
2023/07/21 09:10:50;;;;;;;1.95;1.40;;;;;;;20.28;67.72;100975.28;4996590;28;20076;-74
2023/07/21 09:13:20;;;;;;;1.48;1.17;;;;;;;20.03;70.64;100973.06;5000690;28;20393;-75
2023/07/21 09:15:56;;;;;;;1.08;0.93;;;;;;;19.97;69.91;100966.31;5000101;28;20947;-75
2023/07/21 09:18:26;;;;;;;2.03;0.98;;;;;;;19.91;69.34;100963.19;5002534;28;20052;-75
2023/07/21 09:20:51;;;;;;;1.63;1.50;;;;;;;19.84;69.29;100963.34;4996571;28;20501;-74
2023/07/21 09:23:21;;;;;;;2.55;1.42;;;;;;;20.07;68.79;100957.53;4994666;28;20040;-77
2023/07/21 09:25:57;;;;;;;8.13;2.03;;;;;;;19.88;72.62;100964.06;4996175;28;20038;-76
2023/07/21 09:28:39;;;;;;;3.88;1.65;;;;;;;20.06;72.47;100963.66;5007325;28;20524;-78
2023/07/21 09:31:05;;;;;;;2.05;1.58;;;;;;;20.25;73.15;100967.66;5003055;28;20549;-77
2023/07/21 09:33:32;;;;;;;3.47;1.50;;;;;;;20.11;70.65;100963.09;5002450;28;20046;-77
2023/07/21 09:36:08;;;;;;;2.63;1.65;;;;;;;20.12;71.32;100961.88;4997914;28;20810;-77
2023/07/21 09:38:35;;;;;;;4.15;1.70;;;;;;;19.94;72.22;100959.44;5004128;28;20065;-77
2023/07/21 09:41:06;;;;;;;2.13;1.33;;;;;;;20.30;72.36;100958.59;5003581;28;20582;-77
2023/07/21 09:43:32;;;;;;;3.08;1.70;;;;;;;20.25;73.41;100961.97;5001986;28;20123;-77
2023/07/21 09:46:07;;;;;;;2.15;1.30;;;;;;;20.17;74.03;100961.34;5002737;28;20101;-77
2023/07/21 09:48:33;;;;;;;3.83;1.60;;;;;;;20.28;73.40;100961.91;5010910;28;20724;-77
2023/07/21 09:51:04;;;;;;;2.47;1.40;;;;;;;20.24;70.79;100964.03;5000529;28;20036;-77
2023/07/21 09:53:38;;;;;;;2.53;1.30;;;;;;;20.19;71.53;100966.59;4998415;28;20501;-77
2023/07/21 09:56:05;;;;;;;2.60;1.20;;;;;;;20.18;71.49;100962.16;5001476;28;20034;-77
2023/07/21 09:58:34;;;;;;;2.15;1.63;;;;;;;20.21;71.17;100953.53;5001910;28;20053;-76
2023/07/21 10:01:04;;;;;;;2.42;1.70;;;;;;;20.31;71.05;100961.00;4999399;28;20038;-77
2023/07/21 10:03:31;;;;;;;1.88;1.35;;;;;;;20.57;73.28;100963.22;4999451;28;20046;-76
2023/07/21 10:05:58;;;;;;;6.95;1.52;;;;;;;20.95;68.58;100962.66;5002020;28;20049;-77
2023/07/21 10:08:27;;;;;;;2.20;1.38;;;;;;;21.07;71.09;100970.47;4998086;28;20750;-77
2023/07/21 10:10:55;;;;;;;2.15;1.38;;;;;;;21.09;68.15;100960.22;5000405;28;20121;-77
2023/07/21 10:13:20;;;;;;;1.58;1.23;;;;;;;21.33;67.34;100959.94;4998351;28;20103;-77
2023/07/21 10:15:48;;;;;;;1.27;1.10;;;;;;;21.51;65.02;100956.63;4997614;28;20113;-77
2023/07/21 10:18:14;;;;;;;2.10;1.48;;;;;;;21.46;67.68;100957.16;5001997;28;20030;-77
2023/07/21 10:20:46;;;;;;;1.52;1.23;;;;;;;21.32;64.90;100970.56;5004671;28;20061;-78
2023/07/21 10:23:16;;;;;;;2.50;1.80;;;;;;;21.37;68.11;100957.00;5002652;28;20430;-77
2023/07/21 10:25:51;;;;;;;1.67;1.50;;;;;;;21.56;63.75;100960.97;5006776;28;20049;-77
2023/07/21 10:28:24;;;;;;;1.92;1.50;;;;;;;21.19;63.32;100955.47;5016178;28;20390;-78
2023/07/21 10:30:50;;;;;;;4.45;2.65;;;;;;;21.16;67.11;100959.22;4996171;28;20034;-77
2023/07/21 10:33:17;;;;;;;2.58;2.22;;;;;;;21.27;60.92;100956.06;5016512;28;20064;-78
2023/07/21 10:35:43;;;;;;;4.30;3.03;;;;;;;21.03;61.85;100958.38;5008185;28;20026;-78
2023/07/21 10:38:14;;;;;;;14.23;8.48;;;;;;;21.05;62.65;100961.56;5004124;28;20033;-77
2023/07/21 10:40:45;;;;;;;3.33;1.80;;;;;;;20.98;64.89;100958.94;5007993;28;20038;-78
2023/07/21 10:43:11;;;;;;;1.60;1.27;;;;;;;21.32;63.42;100950.63;4996731;28;20102;-77
2023/07/21 10:45:37;;;;;;;1.25;1.15;;;;;;;21.15;60.94;100957.63;5004652;28;20509;-78
2023/07/21 10:48:13;;;;;;;3.17;2.25;;;;;;;20.99;62.08;100958.47;5002772;28;20049;-78
2023/07/21 10:50:51;;;;;;;3.25;1.95;;;;;;;20.98;66.62;100962.56;5015014;28;20040;-78
2023/07/21 10:53:16;;;;;;;4.82;2.22;;;;;;;21.07;60.24;100953.38;4990779;28;20022;-78
2023/07/21 10:55:42;;;;;;;2.92;1.33;;;;;;;21.18;63.19;100961.63;4998523;28;20042;-78
2023/07/21 10:58:07;;;;;;;3.30;1.65;;;;;;;21.13;59.52;100959.34;5004030;28;20025;-77
2023/07/21 11:00:51;;;;;;;2.38;1.50;;;;;;;21.36;63.27;100963.97;5001930;28;20109;-78
2023/07/21 11:03:17;;;;;;;2.75;1.70;;;;;;;21.60;59.68;100953.91;5014059;28;20374;-78
2023/07/21 11:05:43;;;;;;;2.28;1.25;;;;;;;21.64;62.21;100962.34;5007622;28;20097;-78
2023/07/21 11:08:24;;;;;;;3.58;1.17;;;;;;;21.83;60.31;100952.00;5002527;28;20021;-78
2023/07/21 11:10:49;;;;;;;2.42;1.73;;;;;;;21.80;58.47;100952.91;5019145;28;20048;-78
2023/07/21 11:13:15;;;;;;;1.33;1.15;;;;;;;21.64;57.20;100950.94;5003892;28;20040;-78
2023/07/21 11:15:40;;;;;;;2.97;1.30;;;;;;;21.48;58.14;100948.97;5001526;28;20061;-79
2023/07/21 11:18:05;;;;;;;3.60;1.80;;;;;;;21.57;59.84;100936.91;5005692;28;20059;-78
2023/07/21 11:20:31;;;;;;;2.53;1.50;;;;;;;21.99;60.71;100942.53;5016848;28;20024;-78
2023/07/21 11:22:58;;;;;;;2.35;1.85;;;;;;;22.52;58.72;100937.16;4997872;28;20030;-78